Whitetown, Arkansas
Current Conditions -  °F | °C
As of 2:39 AM on Tuesday 21 Oct 2014 (Local Time) from KMWT Reporting Station
Moderate Fog Moderate Fog  
Wind Chill: 54°   Ceiling: 200
Heat Index: 54°   Visibility: 0.25mi
Dew Point: 53°   Wind: 0mph
Humidity: 97%   Direction: NA
Pressure: 30.05"   Gusts: NA
Location:  34.6364°N, 93.829°W
Report Text: KMWT 210739Z AUTO 00000KT 1/4SM FG VV002 12/12 A3005 RMK AO2 T01220117
Loading
Personal Weather Stations






























Interactive Weather Map
Tropical Storm Tracking
New forecast layout! Learn more

10-Day Weather Forecast

Advertisements
Track Severe Weather on mobile